sensor_id;sensor_type;location;lat;lon;timestamp;pressure;altitude;pressure_sealevel;temperature
74321;BMP280;62738;45.772;4.804;2023-01-28T00:01:28;100022.13;;;2.66
74321;BMP280;62738;45.772;4.804;2023-01-28T00:03:55;100017.41;;;2.55
74321;BMP280;62738;45.772;4.804;2023-01-28T00:06:21;100013.16;;;2.54
74321;BMP280;62738;45.772;4.804;2023-01-28T00:08:48;100020.34;;;2.46
74321;BMP280;62738;45.772;4.804;2023-01-28T00:11:15;100019.13;;;2.41
74321;BMP280;62738;45.772;4.804;2023-01-28T00:13:41;100009.69;;;2.42
74321;BMP280;62738;45.772;4.804;2023-01-28T00:16:08;99999.97;;;2.58
74321;BMP280;62738;45.772;4.804;2023-01-28T00:18:36;100011.91;;;2.66
74321;BMP280;62738;45.772;4.804;2023-01-28T00:21:03;100004.44;;;2.78
74321;BMP280;62738;45.772;4.804;2023-01-28T00:23:35;100011.19;;;2.94
74321;BMP280;62738;45.772;4.804;2023-01-28T00:26:04;100001.69;;;3.06
74321;BMP280;62738;45.772;4.804;2023-01-28T00:28:31;100012.66;;;2.78
74321;BMP280;62738;45.772;4.804;2023-01-28T00:31:05;100017.88;;;2.48
74321;BMP280;62738;45.772;4.804;2023-01-28T00:33:32;100015.69;;;2.63
74321;BMP280;62738;45.772;4.804;2023-01-28T00:36:00;100008.44;;;2.60
74321;BMP280;62738;45.772;4.804;2023-01-28T00:38:27;100001.97;;;2.58
74321;BMP280;62738;45.772;4.804;2023-01-28T00:40:54;100001.72;;;2.84
74321;BMP280;62738;45.772;4.804;2023-01-28T00:43:21;99995.75;;;2.57
74321;BMP280;62738;45.772;4.804;2023-01-28T00:45:47;99993.75;;;2.52
74321;BMP280;62738;45.772;4.804;2023-01-28T00:48:15;99994.47;;;2.47
74321;BMP280;62738;45.772;4.804;2023-01-28T00:50:43;99984.53;;;2.44
74321;BMP280;62738;45.772;4.804;2023-01-28T00:53:10;99985.75;;;2.32
74321;BMP280;62738;45.772;4.804;2023-01-28T00:55:37;99987.50;;;2.40
74321;BMP280;62738;45.772;4.804;2023-01-28T00:58:04;99989.50;;;2.46
74321;BMP280;62738;45.772;4.804;2023-01-28T01:00:31;99982.56;;;2.72
74321;BMP280;62738;45.772;4.804;2023-01-28T01:02:58;99999.00;;;2.61
74321;BMP280;62738;45.772;4.804;2023-01-28T01:05:25;99984.75;;;2.46
74321;BMP280;62738;45.772;4.804;2023-01-28T01:07:51;99984.78;;;2.57
74321;BMP280;62738;45.772;4.804;2023-01-28T01:10:18;99985.28;;;2.78
74321;BMP280;62738;45.772;4.804;2023-01-28T01:12:46;99984.03;;;2.85
74321;BMP280;62738;45.772;4.804;2023-01-28T01:15:13;99983.53;;;2.69
74321;BMP280;62738;45.772;4.804;2023-01-28T01:17:42;99984.78;;;2.57
74321;BMP280;62738;45.772;4.804;2023-01-28T01:20:20;99977.28;;;2.30
74321;BMP280;62738;45.772;4.804;2023-01-28T01:22:47;99970.34;;;2.51
74321;BMP280;62738;45.772;4.804;2023-01-28T01:25:15;99967.59;;;2.68
74321;BMP280;62738;45.772;4.804;2023-01-28T01:27:43;99988.75;;;2.45
74321;BMP280;62738;45.772;4.804;2023-01-28T01:30:11;99970.34;;;2.40
74321;BMP280;62738;45.772;4.804;2023-01-28T01:32:38;99982.28;;;2.42
74321;BMP280;62738;45.772;4.804;2023-01-28T01:35:05;99976.81;;;2.70
74321;BMP280;62738;45.772;4.804;2023-01-28T01:37:34;99990.00;;;2.66
74321;BMP280;62738;45.772;4.804;2023-01-28T01:40:03;99988.50;;;2.43
74321;BMP280;62738;45.772;4.804;2023-01-28T01:42:33;99996.47;;;2.41
74321;BMP280;62738;45.772;4.804;2023-01-28T01:45:04;99994.00;;;2.54
74321;BMP280;62738;45.772;4.804;2023-01-28T01:50:05;99998.72;;;2.82
74321;BMP280;62738;45.772;4.804;2023-01-28T01:52:34;100009.69;;;2.70
74321;BMP280;62738;45.772;4.804;2023-01-28T01:55:05;100003.69;;;2.50
74321;BMP280;62738;45.772;4.804;2023-01-28T01:57:33;100012.88;;;2.30
74321;BMP280;62738;45.772;4.804;2023-01-28T02:00:05;100013.91;;;2.44
74321;BMP280;62738;45.772;4.804;2023-01-28T02:02:36;100009.91;;;2.39
74321;BMP280;62738;45.772;4.804;2023-01-28T02:05:04;100014.38;;;2.36
74321;BMP280;62738;45.772;4.804;2023-01-28T02:07:30;100002.41;;;2.23
74321;BMP280;62738;45.772;4.804;2023-01-28T02:09:57;99999.94;;;2.25
74321;BMP280;62738;45.772;4.804;2023-01-28T02:12:29;100016.59;;;2.21
74321;BMP280;62738;45.772;4.804;2023-01-28T02:17:30;100001.16;;;2.24
74321;BMP280;62738;45.772;4.804;2023-01-28T02:20:09;100003.41;;;2.25
74321;BMP280;62738;45.772;4.804;2023-01-28T02:22:51;100013.13;;;2.37
74321;BMP280;62738;45.772;4.804;2023-01-28T02:30:41;100021.38;;;2.43
74321;BMP280;62738;45.772;4.804;2023-01-28T02:33:15;100006.41;;;2.33
74321;BMP280;62738;45.772;4.804;2023-01-28T02:35:50;100006.47;;;2.61
74321;BMP280;62738;45.772;4.804;2023-01-28T02:38:25;100006.19;;;2.42
74321;BMP280;62738;45.772;4.804;2023-01-28T02:40:58;100006.19;;;2.42
74321;BMP280;62738;45.772;4.804;2023-01-28T02:46:19;100007.19;;;2.84
74321;BMP280;62738;45.772;4.804;2023-01-28T02:49:09;100011.66;;;2.53
74321;BMP280;62738;45.772;4.804;2023-01-28T02:57:42;100007.41;;;2.24
74321;BMP280;62738;45.772;4.804;2023-01-28T03:00:17;100003.94;;;2.46
74321;BMP280;62738;45.772;4.804;2023-01-28T03:03:06;100001.16;;;2.18
74321;BMP280;62738;45.772;4.804;2023-01-28T03:05:44;100003.16;;;2.12
74321;BMP280;62738;45.772;4.804;2023-01-28T03:08:52;100009.84;;;2.11
74321;BMP280;62738;45.772;4.804;2023-01-28T03:11:41;100013.13;;;2.32
74321;BMP280;62738;45.772;4.804;2023-01-28T03:14:27;100013.84;;;2.16
74321;BMP280;62738;45.772;4.804;2023-01-28T03:17:18;100004.41;;;2.22
74321;BMP280;62738;45.772;4.804;2023-01-28T03:20:06;100004.34;;;2.05
74321;BMP280;62738;45.772;4.804;2023-01-28T03:22:53;99995.72;;;2.35
74321;BMP280;62738;45.772;4.804;2023-01-28T03:25:42;99993.22;;;2.37
74321;BMP280;62738;45.772;4.804;2023-01-28T03:28:30;99995.34;;;1.94
74321;BMP280;62738;45.772;4.804;2023-01-28T03:31:18;99992.72;;;2.22
74321;BMP280;62738;45.772;4.804;2023-01-28T03:34:05;100002.84;;;2.04
74321;BMP280;62738;45.772;4.804;2023-01-28T03:36:52;100002.94;;;2.38
74321;BMP280;62738;45.772;4.804;2023-01-28T03:39:25;100000.41;;;2.12
74321;BMP280;62738;45.772;4.804;2023-01-28T03:42:00;99999.69;;;2.34
74321;BMP280;62738;45.772;4.804;2023-01-28T03:44:27;100008.66;;;2.46
74321;BMP280;62738;45.772;4.804;2023-01-28T03:47:12;100006.56;;;2.01
74321;BMP280;62738;45.772;4.804;2023-01-28T03:49:44;100015.28;;;2.00
74321;BMP280;62738;45.772;4.804;2023-01-28T03:52:11;100023.22;;;1.98
74321;BMP280;62738;45.772;4.804;2023-01-28T03:54:38;100015.00;;;1.92
74321;BMP280;62738;45.772;4.804;2023-01-28T03:57:04;100013.59;;;2.19
74321;BMP280;62738;45.772;4.804;2023-01-28T03:59:32;100018.50;;;1.98
74321;BMP280;62738;45.772;4.804;2023-01-28T04:01:58;100028.75;;;2.09
74321;BMP280;62738;45.772;4.804;2023-01-28T04:04:25;100025.47;;;1.99
74321;BMP280;62738;45.772;4.804;2023-01-28T04:06:53;100021.13;;;2.41
74321;BMP280;62738;45.772;4.804;2023-01-28T04:09:21;100020.09;;;2.27
74321;BMP280;62738;45.772;4.804;2023-01-28T04:11:49;100024.06;;;2.32
74321;BMP280;62738;45.772;4.804;2023-01-28T04:14:18;100026.31;;;2.33
74321;BMP280;62738;45.772;4.804;2023-01-28T04:16:45;100026.75;;;2.04
74321;BMP280;62738;45.772;4.804;2023-01-28T04:19:12;100022.88;;;2.55
74321;BMP280;62738;45.772;4.804;2023-01-28T04:21:39;100026.00;;;2.03
74321;BMP280;62738;45.772;4.804;2023-01-28T04:24:06;100026.28;;;2.11
74321;BMP280;62738;45.772;4.804;2023-01-28T04:26:33;100030.28;;;2.21
74321;BMP280;62738;45.772;4.804;2023-01-28T04:28:59;100037.34;;;1.80
74321;BMP280;62738;45.772;4.804;2023-01-28T04:31:26;100029.38;;;1.76
74321;BMP280;62738;45.772;4.804;2023-01-28T04:33:53;100030.75;;;2.09
74321;BMP280;62738;45.772;4.804;2023-01-28T04:36:19;100023.28;;;2.09
74321;BMP280;62738;45.772;4.804;2023-01-28T04:38:46;100029.47;;;2.04
74321;BMP280;62738;45.772;4.804;2023-01-28T04:41:13;100034.03;;;2.24
74321;BMP280;62738;45.772;4.804;2023-01-28T04:43:39;100029.66;;;1.95
74321;BMP280;62738;45.772;4.804;2023-01-28T04:46:06;100034.38;;;1.83
74321;BMP280;62738;45.772;4.804;2023-01-28T04:48:33;100036.19;;;2.03
74321;BMP280;62738;45.772;4.804;2023-01-28T04:51:02;100024.56;;;2.25
74321;BMP280;62738;45.772;4.804;2023-01-28T04:53:29;100022.94;;;1.90
74321;BMP280;62738;45.772;4.804;2023-01-28T04:55:56;100026.00;;;2.03
74321;BMP280;62738;45.772;4.804;2023-01-28T04:58:23;100027.03;;;2.12
74321;BMP280;62738;45.772;4.804;2023-01-28T05:00:54;100021.94;;;1.88
74321;BMP280;62738;45.772;4.804;2023-01-28T05:03:22;100019.38;;;1.67
74321;BMP280;62738;45.772;4.804;2023-01-28T05:05:49;100025.25;;;1.55
74321;BMP280;62738;45.772;4.804;2023-01-28T05:08:15;100017.31;;;1.57
74321;BMP280;62738;45.772;4.804;2023-01-28T05:10:43;100028.50;;;1.59
74321;BMP280;62738;45.772;4.804;2023-01-28T05:13:09;100030.38;;;1.79
74321;BMP280;62738;45.772;4.804;2023-01-28T05:15:36;100038.66;;;2.01
74321;BMP280;62738;45.772;4.804;2023-01-28T05:18:03;100045.78;;;1.87
74321;BMP280;62738;45.772;4.804;2023-01-28T05:20:29;100043.31;;;1.78
74321;BMP280;62738;45.772;4.804;2023-01-28T05:22:56;100035.72;;;2.16
74321;BMP280;62738;45.772;4.804;2023-01-28T05:25:23;100044.69;;;2.11
74321;BMP280;62738;45.772;4.804;2023-01-28T05:27:50;100050.91;;;2.11
74321;BMP280;62738;45.772;4.804;2023-01-28T05:30:18;100055.78;;;1.96
74321;BMP280;62738;45.772;4.804;2023-01-28T05:32:45;100046.53;;;1.88
74321;BMP280;62738;45.772;4.804;2023-01-28T05:35:12;100056.03;;;1.92
74321;BMP280;62738;45.772;4.804;2023-01-28T05:37:39;100057.25;;;1.80
74321;BMP280;62738;45.772;4.804;2023-01-28T05:40:06;100061.94;;;1.74
74321;BMP280;62738;45.772;4.804;2023-01-28T05:42:33;100062.28;;;1.98
74321;BMP280;62738;45.772;4.804;2023-01-28T05:44:59;100066.06;;;2.06
74321;BMP280;62738;45.772;4.804;2023-01-28T05:47:26;100066.44;;;1.88
74321;BMP280;62738;45.772;4.804;2023-01-28T05:49:53;100079.47;;;2.04
74321;BMP280;62738;45.772;4.804;2023-01-28T05:52:19;100085.16;;;1.95
74321;BMP280;62738;45.772;4.804;2023-01-28T05:54:47;100067.22;;;1.83
74321;BMP280;62738;45.772;4.804;2023-01-28T05:57:13;100073.66;;;1.80
74321;BMP280;62738;45.772;4.804;2023-01-28T05:59:40;100076.63;;;1.88
74321;BMP280;62738;45.772;4.804;2023-01-28T06:02:06;100070.19;;;1.85
74321;BMP280;62738;45.772;4.804;2023-01-28T06:04:33;100067.88;;;1.73
74321;BMP280;62738;45.772;4.804;2023-01-28T06:07:00;100067.44;;;1.85
74321;BMP280;62738;45.772;4.804;2023-01-28T06:09:26;100058.28;;;1.94
74321;BMP280;62738;45.772;4.804;2023-01-28T06:11:53;100066.25;;;1.97
74321;BMP280;62738;45.772;4.804;2023-01-28T06:14:19;100057.13;;;2.17
74321;BMP280;62738;45.772;4.804;2023-01-28T06:16:46;100064.72;;;1.85
74321;BMP280;62738;45.772;4.804;2023-01-28T06:19:13;100060.66;;;1.69
74321;BMP280;62738;45.772;4.804;2023-01-28T06:21:39;100059.78;;;1.95
74321;BMP280;62738;45.772;4.804;2023-01-28T06:24:06;100068.34;;;1.65
74321;BMP280;62738;45.772;4.804;2023-01-28T06:26:33;100060.09;;;1.60
74321;BMP280;62738;45.772;4.804;2023-01-28T06:28:59;100068.63;;;1.73
74321;BMP280;62738;45.772;4.804;2023-01-28T06:31:26;100073.66;;;1.86
74321;BMP280;62738;45.772;4.804;2023-01-28T06:33:52;100059.91;;;1.69
74321;BMP280;62738;45.772;4.804;2023-01-28T06:36:19;100064.72;;;1.80
74321;BMP280;62738;45.772;4.804;2023-01-28T06:38:46;100073.88;;;1.77
74321;BMP280;62738;45.772;4.804;2023-01-28T06:41:13;100062.88;;;1.65
74321;BMP280;62738;45.772;4.804;2023-01-28T06:43:39;100092.63;;;1.52
74321;BMP280;62738;45.772;4.804;2023-01-28T06:46:06;100066.38;;;1.34
74321;BMP280;62738;45.772;4.804;2023-01-28T06:48:32;100081.22;;;1.59
74321;BMP280;62738;45.772;4.804;2023-01-28T06:50:59;100073.84;;;1.71
74321;BMP280;62738;45.772;4.804;2023-01-28T06:53:26;100073.13;;;1.76
74321;BMP280;62738;45.772;4.804;2023-01-28T06:55:52;100078.19;;;1.94
74321;BMP280;62738;45.772;4.804;2023-01-28T06:58:19;100085.75;;;1.68
74321;BMP280;62738;45.772;4.804;2023-01-28T07:00:46;100089.78;;;1.41
74321;BMP280;62738;45.772;4.804;2023-01-28T07:03:12;100090.69;;;1.64
74321;BMP280;62738;45.772;4.804;2023-01-28T07:05:39;100091.84;;;1.94
74321;BMP280;62738;45.772;4.804;2023-01-28T07:08:06;100090.47;;;1.67
74321;BMP280;62738;45.772;4.804;2023-01-28T07:10:33;100092.06;;;1.85
74321;BMP280;62738;45.772;4.804;2023-01-28T07:12:59;100101.50;;;1.79
74321;BMP280;62738;45.772;4.804;2023-01-28T07:15:26;100092.28;;;1.76
74321;BMP280;62738;45.772;4.804;2023-01-28T07:17:53;100092.06;;;1.85
74321;BMP280;62738;45.772;4.804;2023-01-28T07:20:19;100093.94;;;2.11
74321;BMP280;62738;45.772;4.804;2023-01-28T07:22:46;100097.59;;;1.96
74321;BMP280;62738;45.772;4.804;2023-01-28T07:25:13;100094.06;;;1.85
74321;BMP280;62738;45.772;4.804;2023-01-28T07:27:51;100097.03;;;1.81
74321;BMP280;62738;45.772;4.804;2023-01-28T07:30:19;100105.75;;;1.85
74321;BMP280;62738;45.772;4.804;2023-01-28T07:32:46;100100.41;;;1.65
74321;BMP280;62738;45.772;4.804;2023-01-28T07:35:17;100102.22;;;1.74
74321;BMP280;62738;45.772;4.804;2023-01-28T07:37:51;100111.66;;;1.73
74321;BMP280;62738;45.772;4.804;2023-01-28T07:40:18;100120.59;;;1.73
74321;BMP280;62738;45.772;4.804;2023-01-28T07:42:44;100125.38;;;1.78
74321;BMP280;62738;45.772;4.804;2023-01-28T07:45:11;100123.75;;;2.03
74321;BMP280;62738;45.772;4.804;2023-01-28T07:47:38;100118.72;;;1.96
74321;BMP280;62738;45.772;4.804;2023-01-28T07:50:05;100120.75;;;2.01
74321;BMP280;62738;45.772;4.804;2023-01-28T07:52:32;100121.94;;;1.94
74321;BMP280;62738;45.772;4.804;2023-01-28T07:55:04;100124.47;;;1.98
74321;BMP280;62738;45.772;4.804;2023-01-28T07:57:31;100128.50;;;1.65
74321;BMP280;62738;45.772;4.804;2023-01-28T07:59:57;100125.84;;;1.77
74321;BMP280;62738;45.772;4.804;2023-01-28T08:02:24;100122.78;;;2.06
74321;BMP280;62738;45.772;4.804;2023-01-28T08:04:50;100127.53;;;2.11
74321;BMP280;62738;45.772;4.804;2023-01-28T08:07:17;100139.28;;;2.23
74321;BMP280;62738;45.772;4.804;2023-01-28T08:09:44;100140.03;;;2.23
74321;BMP280;62738;45.772;4.804;2023-01-28T08:12:10;100142.06;;;1.91
74321;BMP280;62738;45.772;4.804;2023-01-28T08:14:37;100154.16;;;2.11
74321;BMP280;62738;45.772;4.804;2023-01-28T08:17:03;100139.56;;;1.88
74321;BMP280;62738;45.772;4.804;2023-01-28T08:19:30;100147.81;;;1.93
74321;BMP280;62738;45.772;4.804;2023-01-28T08:21:57;100146.56;;;1.94
74321;BMP280;62738;45.772;4.804;2023-01-28T08:24:23;100147.53;;;1.86
74321;BMP280;62738;45.772;4.804;2023-01-28T08:26:50;100158.63;;;2.08
74321;BMP280;62738;45.772;4.804;2023-01-28T08:29:16;100158.69;;;2.25
74321;BMP280;62738;45.772;4.804;2023-01-28T08:31:43;100174.81;;;2.12
74321;BMP280;62738;45.772;4.804;2023-01-28T08:34:10;100149.22;;;2.20
74321;BMP280;62738;45.772;4.804;2023-01-28T08:36:37;100149.72;;;2.24
74321;BMP280;62738;45.772;4.804;2023-01-28T08:39:03;100153.19;;;2.19
74321;BMP280;62738;45.772;4.804;2023-01-28T08:41:31;100156.00;;;2.36
74321;BMP280;62738;45.772;4.804;2023-01-28T08:43:57;100163.94;;;2.34
74321;BMP280;62738;45.772;4.804;2023-01-28T08:46:25;100162.56;;;2.55
74321;BMP280;62738;45.772;4.804;2023-01-28T08:48:52;100156.97;;;2.33
74321;BMP280;62738;45.772;4.804;2023-01-28T08:51:18;100159.34;;;2.62
74321;BMP280;62738;45.772;4.804;2023-01-28T08:53:45;100172.94;;;2.40
74321;BMP280;62738;45.772;4.804;2023-01-28T08:56:12;100156.81;;;2.53
74321;BMP280;62738;45.772;4.804;2023-01-28T08:58:39;100170.97;;;2.46
74321;BMP280;62738;45.772;4.804;2023-01-28T09:01:06;100175.31;;;2.75
74321;BMP280;62738;45.772;4.804;2023-01-28T09:03:33;100179.78;;;2.72
74321;BMP280;62738;45.772;4.804;2023-01-28T09:06:02;100170.81;;;2.77
74321;BMP280;62738;45.772;4.804;2023-01-28T09:08:29;100168.31;;;2.68
74321;BMP280;62738;45.772;4.804;2023-01-28T09:10:57;100191.50;;;2.78
74321;BMP280;62738;45.772;4.804;2023-01-28T09:13:24;100188.00;;;2.78
74321;BMP280;62738;45.772;4.804;2023-01-28T09:15:51;100186.53;;;2.83
74321;BMP280;62738;45.772;4.804;2023-01-28T09:18:18;100178.53;;;2.68
74321;BMP280;62738;45.772;4.804;2023-01-28T09:20:44;100206.66;;;2.63
74321;BMP280;62738;45.772;4.804;2023-01-28T09:23:11;100210.25;;;2.91
74321;BMP280;62738;45.772;4.804;2023-01-28T09:25:38;100195.72;;;2.68
74321;BMP280;62738;45.772;4.804;2023-01-28T09:28:05;100203.97;;;2.74
74321;BMP280;62738;45.772;4.804;2023-01-28T09:30:32;100211.00;;;2.92
74321;BMP280;62738;45.772;4.804;2023-01-28T09:33:02;100205.06;;;3.21
74321;BMP280;62738;45.772;4.804;2023-01-28T09:35:29;100216.03;;;3.21
74321;BMP280;62738;45.772;4.804;2023-01-28T09:37:57;100216.97;;;3.07
74321;BMP280;62738;45.772;4.804;2023-01-28T09:40:34;100212.00;;;3.11
74321;BMP280;62738;45.772;4.804;2023-01-28T09:43:08;100212.00;;;3.05
74321;BMP280;62738;45.772;4.804;2023-01-28T09:45:44;100222.44;;;2.96
74321;BMP280;62738;45.772;4.804;2023-01-28T09:48:18;100220.97;;;3.06
74321;BMP280;62738;45.772;4.804;2023-01-28T09:50:51;100215.03;;;3.24
74321;BMP280;62738;45.772;4.804;2023-01-28T09:53:24;100231.47;;;3.19
74321;BMP280;62738;45.772;4.804;2023-01-28T09:58:21;100215.06;;;3.35
74321;BMP280;62738;45.772;4.804;2023-01-28T10:03:53;100224.75;;;3.42
74321;BMP280;62738;45.772;4.804;2023-01-28T10:06:46;100225.78;;;3.44
74321;BMP280;62738;45.772;4.804;2023-01-28T10:12:36;100237.75;;;3.58
74321;BMP280;62738;45.772;4.804;2023-01-28T10:15:27;100235.75;;;3.47
74321;BMP280;62738;45.772;4.804;2023-01-28T10:17:52;100248.19;;;3.43
74321;BMP280;62738;45.772;4.804;2023-01-28T10:20:46;100239.72;;;3.35
74321;BMP280;62738;45.772;4.804;2023-01-28T10:23:24;100249.69;;;3.27
74321;BMP280;62738;45.772;4.804;2023-01-28T10:25:55;100236.00;;;3.44
74321;BMP280;62738;45.772;4.804;2023-01-28T10:28:27;100237.97;;;3.55
74321;BMP280;62738;45.772;4.804;2023-01-28T10:30:54;100250.72;;;3.46
74321;BMP280;62738;45.772;4.804;2023-01-28T10:33:30;100248.44;;;3.39
74321;BMP280;62738;45.772;4.804;2023-01-28T10:35:58;100236.72;;;3.50
74321;BMP280;62738;45.772;4.804;2023-01-28T10:38:26;100237.22;;;3.43
74321;BMP280;62738;45.772;4.804;2023-01-28T10:40:59;100236.50;;;3.59
74321;BMP280;62738;45.772;4.804;2023-01-28T10:43:30;100257.44;;;3.57
74321;BMP280;62738;45.772;4.804;2023-01-28T10:46:05;100234.53;;;3.65
74321;BMP280;62738;45.772;4.804;2023-01-28T10:48:36;100227.75;;;3.72
74321;BMP280;62738;45.772;4.804;2023-01-28T10:51:04;100225.78;;;3.72
74321;BMP280;62738;45.772;4.804;2023-01-28T10:53:36;100228.50;;;3.78
74321;BMP280;62738;45.772;4.804;2023-01-28T10:56:06;100220.25;;;3.83
74321;BMP280;62738;45.772;4.804;2023-01-28T10:58:36;100210.75;;;3.96
74321;BMP280;62738;45.772;4.804;2023-01-28T11:01:12;100214.03;;;3.83
74321;BMP280;62738;45.772;4.804;2023-01-28T11:03:40;100221.72;;;4.01
74321;BMP280;62738;45.772;4.804;2023-01-28T11:06:24;100214.72;;;4.06
74321;BMP280;62738;45.772;4.804;2023-01-28T11:08:50;100215.72;;;4.14
74321;BMP280;62738;45.772;4.804;2023-01-28T11:11:24;100218.16;;;4.29
74321;BMP280;62738;45.772;4.804;2023-01-28T11:13:52;100221.38;;;4.44
74321;BMP280;62738;45.772;4.804;2023-01-28T11:16:21;100213.38;;;4.46
74321;BMP280;62738;45.772;4.804;2023-01-28T11:18:51;100211.88;;;4.50
74321;BMP280;62738;45.772;4.804;2023-01-28T11:21:21;100201.72;;;4.23
74321;BMP280;62738;45.772;4.804;2023-01-28T11:24:06;100214.91;;;4.36
74321;BMP280;62738;45.772;4.804;2023-01-28T11:26:43;100205.16;;;4.35
74321;BMP280;62738;45.772;4.804;2023-01-28T11:29:22;100198.44;;;4.30
74321;BMP280;62738;45.772;4.804;2023-01-28T11:31:50;100196.72;;;4.27
74321;BMP280;62738;45.772;4.804;2023-01-28T11:34:18;100197.88;;;4.43
74321;BMP280;62738;45.772;4.804;2023-01-28T11:36:53;100199.13;;;4.42
74321;BMP280;62738;45.772;4.804;2023-01-28T11:39:24;100196.19;;;4.34
74321;BMP280;62738;45.772;4.804;2023-01-28T11:42:01;100192.19;;;4.30
74321;BMP280;62738;45.772;4.804;2023-01-28T11:44:29;100184.03;;;4.13
74321;BMP280;62738;45.772;4.804;2023-01-28T12:09:29;100177.38;;;4.55
74321;BMP280;62738;45.772;4.804;2023-01-28T12:25:41;100181.91;;;4.41
74321;BMP280;62738;45.772;4.804;2023-01-28T12:28:29;100182.53;;;4.64
74321;BMP280;62738;45.772;4.804;2023-01-28T12:37:14;100158.75;;;4.78
74321;BMP280;62738;45.772;4.804;2023-01-28T12:42:51;100168.81;;;4.64
74321;BMP280;62738;45.772;4.804;2023-01-28T12:45:24;100162.22;;;4.78
74321;BMP280;62738;45.772;4.804;2023-01-28T12:48:01;100169.22;;;4.79
74321;BMP280;62738;45.772;4.804;2023-01-28T12:50:32;100177.97;;;4.83
74321;BMP280;62738;45.772;4.804;2023-01-28T12:53:17;100178.06;;;5.08
74321;BMP280;62738;45.772;4.804;2023-01-28T12:56:05;100185.69;;;5.20
74321;BMP280;62738;45.772;4.804;2023-01-28T12:58:56;100182.44;;;4.86
74321;BMP280;62738;45.772;4.804;2023-01-28T13:01:36;100172.81;;;4.63
74321;BMP280;62738;45.772;4.804;2023-01-28T13:04:12;100174.81;;;4.63
74321;BMP280;62738;45.772;4.804;2023-01-28T13:06:53;100167.72;;;4.84
74321;BMP280;62738;45.772;4.804;2023-01-28T13:09:24;100174.97;;;4.81
74321;BMP280;62738;45.772;4.804;2023-01-28T13:11:53;100175.59;;;4.99
74321;BMP280;62738;45.772;4.804;2023-01-28T13:14:27;100177.53;;;4.74
74321;BMP280;62738;45.772;4.804;2023-01-28T13:16:54;100194.13;;;4.51
74321;BMP280;62738;45.772;4.804;2023-01-28T13:19:24;100181.28;;;4.65
74321;BMP280;62738;45.772;4.804;2023-01-28T13:21:51;100174.38;;;4.53
74321;BMP280;62738;45.772;4.804;2023-01-28T13:24:21;100186.47;;;4.80
74321;BMP280;62738;45.772;4.804;2023-01-28T13:26:53;100193.72;;;4.77
74321;BMP280;62738;45.772;4.804;2023-01-28T13:29:29;100193.25;;;4.73
74321;BMP280;62738;45.772;4.804;2023-01-28T13:31:59;100192.84;;;4.99
74321;BMP280;62738;45.772;4.804;2023-01-28T13:34:30;100204.69;;;4.88
74321;BMP280;62738;45.772;4.804;2023-01-28T13:40:26;100208.84;;;4.54
74321;BMP280;62738;45.772;4.804;2023-01-28T13:43:04;100193.53;;;4.70
74321;BMP280;62738;45.772;4.804;2023-01-28T13:45:32;100203.75;;;4.69
74321;BMP280;62738;45.772;4.804;2023-01-28T13:48:13;100220.50;;;4.66
74321;BMP280;62738;45.772;4.804;2023-01-28T13:50:42;100209.75;;;4.73
74321;BMP280;62738;45.772;4.804;2023-01-28T13:53:35;100216.19;;;4.87
74321;BMP280;62738;45.772;4.804;2023-01-28T13:56:14;100225.75;;;4.69
74321;BMP280;62738;45.772;4.804;2023-01-28T13:59:14;100223.53;;;4.62
74321;BMP280;62738;45.772;4.804;2023-01-28T14:01:54;100236.84;;;4.52
74321;BMP280;62738;45.772;4.804;2023-01-28T14:13:20;100244.00;;;4.67
74321;BMP280;62738;45.772;4.804;2023-01-28T14:18:41;100238.00;;;4.68
74321;BMP280;62738;45.772;4.804;2023-01-28T14:21:12;100241.00;;;4.70
74321;BMP280;62738;45.772;4.804;2023-01-28T14:23:49;100252.06;;;4.53
74321;BMP280;62738;45.772;4.804;2023-01-28T14:29:00;100242.34;;;4.52
74321;BMP280;62738;45.772;4.804;2023-01-28T14:31:35;100248.56;;;4.47
74321;BMP280;62738;45.772;4.804;2023-01-28T14:34:11;100254.09;;;4.42
74321;BMP280;62738;45.772;4.804;2023-01-28T14:36:43;100252.31;;;4.44
74321;BMP280;62738;45.772;4.804;2023-01-28T14:39:16;100258.84;;;4.36
74321;BMP280;62738;45.772;4.804;2023-01-28T14:41:44;100270.09;;;4.32
74321;BMP280;62738;45.772;4.804;2023-01-28T14:44:26;100264.38;;;4.25
74321;BMP280;62738;45.772;4.804;2023-01-28T14:47:00;100266.06;;;4.39
74321;BMP280;62738;45.772;4.804;2023-01-28T14:50:06;100269.81;;;4.41
74321;BMP280;62738;45.772;4.804;2023-01-28T14:58:05;100260.38;;;4.26
74321;BMP280;62738;45.772;4.804;2023-01-28T15:00:35;100276.09;;;4.36
74321;BMP280;62738;45.772;4.804;2023-01-28T15:03:17;100270.06;;;4.49
74321;BMP280;62738;45.772;4.804;2023-01-28T15:06:15;100277.59;;;4.32
74321;BMP280;62738;45.772;4.804;2023-01-28T15:08:41;100266.06;;;4.55
74321;BMP280;62738;45.772;4.804;2023-01-28T15:11:12;100278.06;;;4.47
74321;BMP280;62738;45.772;4.804;2023-01-28T15:13:43;100267.31;;;4.43
74321;BMP280;62738;45.772;4.804;2023-01-28T15:16:19;100277.06;;;4.50
74321;BMP280;62738;45.772;4.804;2023-01-28T15:18:47;100276.31;;;4.44
74321;BMP280;62738;45.772;4.804;2023-01-28T15:21:23;100266.56;;;4.37
74321;BMP280;62738;45.772;4.804;2023-01-28T15:23:55;100273.34;;;4.36
74321;BMP280;62738;45.772;4.804;2023-01-28T15:26:25;100286.31;;;4.36
74321;BMP280;62738;45.772;4.804;2023-01-28T15:28:53;100284.28;;;4.47
74321;BMP280;62738;45.772;4.804;2023-01-28T15:31:23;100286.94;;;4.75
74321;BMP280;62738;45.772;4.804;2023-01-28T15:34:00;100285.78;;;4.54
74321;BMP280;62738;45.772;4.804;2023-01-28T15:36:28;100293.78;;;4.41
74321;BMP280;62738;45.772;4.804;2023-01-28T15:38:56;100285.53;;;4.52
74321;BMP280;62738;45.772;4.804;2023-01-28T15:41:27;100287.06;;;4.31
74321;BMP280;62738;45.772;4.804;2023-01-28T15:43:55;100289.56;;;4.34
74321;BMP280;62738;45.772;4.804;2023-01-28T15:46:21;100296.03;;;4.42
74321;BMP280;62738;45.772;4.804;2023-01-28T15:48:59;100303.03;;;4.38
74321;BMP280;62738;45.772;4.804;2023-01-28T15:51:28;100300.03;;;4.47
74321;BMP280;62738;45.772;4.804;2023-01-28T15:54:03;100308.06;;;4.34
74321;BMP280;62738;45.772;4.804;2023-01-28T15:56:30;100304.28;;;4.53
74321;BMP280;62738;45.772;4.804;2023-01-28T15:59:09;100302.78;;;4.47
74321;BMP280;62738;45.772;4.804;2023-01-28T16:01:41;100310.53;;;4.48
74321;BMP280;62738;45.772;4.804;2023-01-28T16:04:26;100314.56;;;4.25
74321;BMP280;62738;45.772;4.804;2023-01-28T16:06:55;100332.25;;;4.46